Home   Weather   Germany   Dillenburg   Past weeks
Flag for Germany

Past Weather in Dillenburg, Hesse, Germany — Yesterday and Last 2 Weeks

Currently: 54 °F. Clear. (Weather station: Siegerland Airport, Germany). See more current weather

Past Weather in Dillenburg — Graph

°F

Dillenburg Temperature Yesterday

Maximum temperature yesterday: 64 °F (at 5:20 pm)
Minimum temperature yesterday: 50 °F (at 2:50 am)
Average temperature yesterday: 56 °F

High & Low Weather Summary for the Past Weeks

 TemperatureHumidityPressure
High70 °F (May 13, 4:50 pm)100% (May 6, 10:20 am)30.33 "Hg (May 6, 10:20 am)
Low43 °F (May 8, 4:50 am)39% (May 9, 2:20 pm)29.65 "Hg (May 16, 5:20 am)
Average56 °F75%29.95 "Hg
* Reported May 6 1:20 am — May 21 1:50 am, Dillenburg. Weather by CustomWeather, © 2024

Note: Actual official high and low records may vary slightly from our data, if they occured in-between our weather recording intervals... More about our weather records

Dillenburg Weather History for the Previous 24 Hours

Scroll right to see more
 ConditionsComfort  
Time TempWeatherWind HumidityBarometerVisibility
1:50 am
Tue, May 21
54 °FClear.6 mph88%29.83 "HgN/A
1:20 am54 °FClear.7 mph82%29.83 "HgN/A
12:50 am55 °FClear.7 mph77%29.83 "HgN/A
12:20 am55 °FPassing clouds.7 mph77%29.86 "Hg2 mi
11:50 pm
Mon, May 20
57 °FClear.6 mph72%29.86 "Hg1 mi
11:20 pm57 °FClear.5 mph72%29.86 "HgN/A
10:50 pm57 °FClear.2 mph77%29.86 "Hg2 mi
10:20 pm59 °FClear.3 mph72%29.86 "HgN/A
9:50 pm59 °FClear.3 mph72%29.86 "HgN/A
9:20 pm59 °FClear.3 mph68%29.86 "HgN/A
8:50 pm61 °FSunny.2 mph63%29.86 "HgN/A
8:20 pm63 °FPassing clouds.3 mph59%29.86 "HgN/A
7:50 pm63 °FSunny.5 mph59%29.83 "Hg10 mi
7:20 pm63 °FPassing clouds.6 mph59%29.83 "HgN/A
6:50 pm63 °FPassing clouds.5 mph59%29.83 "HgN/A
6:20 pm64 °FPassing clouds.6 mph56%29.83 "HgN/A
5:50 pm64 °FPassing clouds.5 mph56%29.86 "HgN/A
5:20 pm64 °FPassing clouds.8 mph60%29.86 "HgN/A
4:50 pm61 °FPartly sunny.6 mph63%29.86 "HgN/A
4:20 pm61 °FPassing clouds.6 mph68%29.86 "HgN/A
3:50 pm61 °FPassing clouds.7 mph68%29.86 "HgN/A
3:20 pm61 °FScattered clouds.8 mph72%29.86 "HgN/A
2:50 pm63 °FPartly sunny.6 mph68%29.89 "HgN/A
1:50 pm59 °FScattered clouds.5 mph72%29.89 "HgN/A
1:20 pm57 °FBroken clouds.7 mph77%29.89 "HgN/A
12:50 pm59 °FBroken clouds.7 mph77%29.89 "HgN/A
12:20 pm57 °FBroken clouds.3 mph82%29.89 "HgN/A
11:50 am55 °FBroken clouds.3 mph82%29.89 "Hg4 mi
11:20 am55 °FFog.5 mph82%29.89 "Hg3 mi
10:50 am54 °FFog.5 mph88%29.89 "Hg3 mi
10:20 am54 °FFog.3 mph88%29.89 "Hg3 mi
9:50 am52 °FFog.3 mph94%29.89 "Hg1 mi
9:20 am52 °FFog.3 mph94%29.86 "Hg2 mi
8:50 am52 °FFog.2 mph94%29.86 "Hg1 mi
8:20 am52 °FFog.5 mph94%29.86 "Hg1 mi
7:50 am50 °FFog.3 mph100%29.86 "Hg1 mi
7:20 am50 °FFog.5 mph100%29.86 "Hg0 mi
6:50 am52 °FPartly sunny.6 mph94%29.86 "Hg1 mi
6:20 am50 °FMore clouds than sun.7 mph100%29.86 "Hg1 mi
5:50 am50 °FMore clouds than sun.7 mph100%29.86 "Hg1 mi
5:20 am50 °FMostly cloudy.7 mph100%29.86 "Hg3 mi
4:50 am50 °FPassing clouds.5 mph100%29.86 "Hg3 mi
4:20 am50 °FPassing clouds.6 mph100%29.86 "Hg3 mi
3:50 am50 °FPassing clouds.7 mph94%29.86 "Hg2 mi
3:20 am50 °FPassing clouds.7 mph94%29.86 "Hg3 mi
Weather by CustomWeather, © 2024

See weather overview